Time;durP1;ratioP1;P1;durP2;ratioP2;P2;SDS_P1;SDS_P2;PMS_P1;PMS_P2;Temp;Humidity;BMP_temperature;BMP_pressure;BME280_temperature;BME280_humidity;BME280_pressure;Samples;Min_cycle;Max_cycle;Signal;HPM_P1;HPM_P2
2022/02/25 00:00:47;;;;;;;16.40;3.15;;;3.70;99.90;;;;;;5074004;28;20037;-70
2022/02/25 00:03:15;;;;;;;17.77;3.20;;;3.80;99.90;;;;;;5073724;28;20040;-70
2022/02/25 00:05:42;;;;;;;11.13;3.28;;;3.80;99.90;;;;;;5073852;28;20123;-70
2022/02/25 00:08:08;;;;;;;15.85;3.08;;;3.80;99.90;;;;;;5073780;28;20093;-70
2022/02/25 00:10:34;;;;;;;16.55;3.35;;;3.80;99.90;;;;;;5073910;28;20033;-70
2022/02/25 00:13:00;;;;;;;14.25;3.25;;;3.80;99.90;;;;;;5073490;28;20086;-70
2022/02/25 00:15:26;;;;;;;16.23;3.00;;;3.80;99.90;;;;;;5073771;28;20040;-70
2022/02/25 00:17:51;;;;;;;11.13;2.45;;;3.80;99.90;;;;;;5073683;28;20068;-70
2022/02/25 00:20:17;;;;;;;11.50;2.97;;;3.80;99.90;;;;;;5073545;28;20041;-71
2022/02/25 00:22:43;;;;;;;7.97;2.50;;;3.90;99.90;;;;;;5073065;28;20115;-71
2022/02/25 00:25:09;;;;;;;12.15;2.65;;;3.90;99.90;;;;;;5055645;28;20048;-70
2022/02/25 00:27:40;;;;;;;13.45;2.60;;;3.90;99.90;;;;;;5073389;28;20619;-70
2022/02/25 00:30:07;;;;;;;14.85;2.40;;;3.90;99.90;;;;;;5073432;28;20040;-70
2022/02/25 00:32:33;;;;;;;15.50;3.40;;;4.00;99.90;;;;;;5072793;28;20068;-70
2022/02/25 00:34:58;;;;;;;11.50;2.25;;;4.00;99.90;;;;;;5073215;28;20070;-69
2022/02/25 00:37:24;;;;;;;13.82;2.88;;;4.00;99.90;;;;;;5073423;28;20036;-69
2022/02/25 00:39:49;;;;;;;15.45;2.80;;;4.00;99.90;;;;;;5073251;28;20495;-69
2022/02/25 00:42:15;;;;;;;16.30;2.75;;;4.00;99.90;;;;;;5072925;28;20032;-69
2022/02/25 00:44:41;;;;;;;16.92;4.82;;;4.00;99.90;;;;;;5073208;28;20036;-70
2022/02/25 00:47:06;;;;;;;15.68;3.72;;;4.00;99.90;;;;;;5055167;28;20108;-70
2022/02/25 00:49:32;;;;;;;10.02;1.98;;;4.00;99.90;;;;;;5072856;28;20035;-70
2022/02/25 00:51:57;;;;;;;8.95;2.15;;;4.10;99.90;;;;;;5072665;28;20044;-70
2022/02/25 00:54:23;;;;;;;12.52;2.00;;;4.10;99.90;;;;;;5073079;28;20040;-70
2022/02/25 00:56:49;;;;;;;9.27;2.15;;;4.10;99.90;;;;;;5072820;28;20036;-70
2022/02/25 00:59:14;;;;;;;9.88;2.35;;;4.10;99.90;;;;;;5055147;28;20068;-69
2022/02/25 01:01:40;;;;;;;8.85;2.50;;;4.10;99.90;;;;;;5072424;28;20089;-69
2022/02/25 01:04:06;;;;;;;11.38;2.92;;;4.10;99.90;;;;;;5072626;28;20048;-70
2022/02/25 01:06:31;;;;;;;10.88;2.70;;;4.10;99.90;;;;;;5072507;28;20040;-69
2022/02/25 01:08:57;;;;;;;14.73;2.78;;;4.20;99.90;;;;;;5072771;28;20086;-69
2022/02/25 01:11:23;;;;;;;8.18;2.00;;;4.20;99.90;;;;;;5072407;28;20115;-70
2022/02/25 01:13:48;;;;;;;10.45;2.47;;;4.30;99.90;;;;;;5072454;28;20444;-70
2022/02/25 01:16:14;;;;;;;7.13;1.92;;;4.30;99.90;;;;;;5072449;28;20033;-70
2022/02/25 01:18:39;;;;;;;8.25;2.38;;;4.40;99.90;;;;;;5072429;28;20115;-69
2022/02/25 01:21:06;;;;;;;7.38;1.95;;;4.40;99.90;;;;;;5071955;28;20043;-70
2022/02/25 01:23:33;;;;;;;12.77;2.90;;;4.40;99.90;;;;;;5072468;28;20036;-69
2022/02/25 01:25:58;;;;;;;11.23;2.50;;;4.40;99.90;;;;;;5072422;28;20048;-70
2022/02/25 01:28:24;;;;;;;18.25;2.50;;;4.40;99.90;;;;;;5072332;28;20497;-69
2022/02/25 01:30:50;;;;;;;16.05;2.20;;;4.40;99.90;;;;;;5072125;28;20036;-70
2022/02/25 01:33:15;;;;;;;8.10;2.90;;;4.50;99.90;;;;;;5071918;28;20032;-70
2022/02/25 01:35:41;;;;;;;12.07;2.78;;;4.40;99.90;;;;;;5054143;28;20465;-70
2022/02/25 01:38:06;;;;;;;13.48;3.17;;;4.40;99.90;;;;;;5054511;28;20071;-70
2022/02/25 01:40:32;;;;;;;11.13;2.53;;;4.50;99.90;;;;;;5072169;28;20036;-70
2022/02/25 01:42:59;;;;;;;9.13;2.45;;;4.50;99.90;;;;;;5071831;28;20150;-70
2022/02/25 01:45:24;;;;;;;14.27;2.33;;;4.50;99.90;;;;;;5072063;28;20128;-70
2022/02/25 01:47:50;;;;;;;12.95;3.40;;;4.50;99.90;;;;;;5071953;28;20655;-70
2022/02/25 01:50:16;;;;;;;14.70;2.85;;;4.50;99.90;;;;;;5071840;28;20090;-69
2022/02/25 01:53:05;;;;;;;14.20;3.13;;;4.60;99.90;;;;;;5071141;28;20032;-70
2022/02/25 01:55:32;;;;;;;14.30;2.45;;;4.60;99.90;;;;;;5054217;28;20063;-70
2022/02/25 01:57:58;;;;;;;9.70;3.28;;;4.60;99.90;;;;;;5072125;28;20414;-70
2022/02/25 02:00:25;;;;;;;11.20;2.70;;;4.60;99.90;;;;;;5071765;28;20029;-70
2022/02/25 02:02:51;;;;;;;11.73;4.65;;;4.70;99.90;;;;;;5071649;28;20072;-69
2022/02/25 02:05:17;;;;;;;12.85;2.80;;;4.70;99.90;;;;;;5071730;28;20079;-70
2022/02/25 02:07:43;;;;;;;11.68;2.95;;;4.70;99.90;;;;;;5071991;28;20075;-70
2022/02/25 02:10:09;;;;;;;13.80;3.17;;;4.70;99.90;;;;;;5071869;28;20036;-70
2022/02/25 02:12:35;;;;;;;21.17;3.55;;;4.80;99.90;;;;;;5071777;28;20490;-70
2022/02/25 02:15:01;;;;;;;12.18;3.35;;;4.70;99.90;;;;;;5071678;28;20052;-69
2022/02/25 02:17:26;;;;;;;14.93;3.08;;;4.80;99.90;;;;;;5071904;28;20068;-70
2022/02/25 02:19:52;;;;;;;13.35;2.92;;;4.80;99.90;;;;;;5054054;28;20074;-70
2022/02/25 02:22:23;;;;;;;11.30;3.20;;;4.80;99.90;;;;;;5071409;28;20036;-69
2022/02/25 02:24:48;;;;;;;7.70;2.47;;;4.70;99.90;;;;;;5071784;28;20037;-70
2022/02/25 02:27:14;;;;;;;20.48;3.03;;;4.80;99.90;;;;;;5071671;28;20043;-70
2022/02/25 02:29:39;;;;;;;14.50;2.42;;;4.80;99.90;;;;;;5071550;28;20387;-70
2022/02/25 02:32:05;;;;;;;8.35;2.13;;;4.80;99.90;;;;;;5071186;28;20047;-70
2022/02/25 02:34:31;;;;;;;10.68;2.70;;;4.80;99.90;;;;;;5071736;28;20429;-70
2022/02/25 02:36:56;;;;;;;12.98;2.28;;;4.70;99.90;;;;;;5071629;28;20062;-70
2022/02/25 02:39:22;;;;;;;11.35;2.85;;;4.60;99.90;;;;;;5053526;28;20436;-70
2022/02/25 02:41:47;;;;;;;11.23;3.40;;;4.50;99.90;;;;;;5053274;28;20405;-70
2022/02/25 02:44:13;;;;;;;17.02;2.88;;;4.50;99.90;;;;;;5053730;28;20550;-70
2022/02/25 02:46:39;;;;;;;15.13;3.05;;;4.40;99.90;;;;;;5071621;28;20076;-70
2022/02/25 02:49:04;;;;;;;12.23;3.65;;;4.40;99.90;;;;;;5053642;28;20032;-69
2022/02/25 02:51:31;;;;;;;19.00;3.42;;;4.40;99.90;;;;;;5071174;28;20040;-70
2022/02/25 02:53:56;;;;;;;12.63;2.70;;;4.40;99.90;;;;;;5071230;28;20120;-69
2022/02/25 02:56:22;;;;;;;16.90;4.82;;;4.30;99.90;;;;;;5071344;28;20474;-70
2022/02/25 02:58:55;;;;;;;13.10;2.42;;;4.30;99.90;;;;;;5053237;28;20118;-70
2022/02/25 03:01:23;;;;;;;9.48;2.97;;;4.30;99.90;;;;;;5071143;28;20041;-70
2022/02/25 03:03:49;;;;;;;11.88;2.67;;;4.20;99.90;;;;;;5054334;28;20055;-70
2022/02/25 03:06:14;;;;;;;18.52;4.13;;;4.20;99.90;;;;;;5075085;28;20410;-70
2022/02/25 03:08:40;;;;;;;11.50;3.03;;;4.10;99.90;;;;;;5074987;28;20093;-70
2022/02/25 03:11:05;;;;;;;11.27;2.97;;;4.10;99.90;;;;;;5074591;28;20048;-70
2022/02/25 03:13:31;;;;;;;13.43;2.50;;;4.10;99.90;;;;;;5074765;28;20119;-70
2022/02/25 03:15:56;;;;;;;11.65;2.38;;;4.00;99.90;;;;;;5074711;28;20047;-70
2022/02/25 03:18:22;;;;;;;13.57;2.92;;;4.00;99.90;;;;;;5056734;28;20033;-69
2022/02/25 03:20:47;;;;;;;11.45;2.42;;;4.00;99.90;;;;;;5074672;28;20029;-70
2022/02/25 03:23:13;;;;;;;10.73;3.28;;;4.00;99.90;;;;;;5074409;28;20097;-70
2022/02/25 03:25:39;;;;;;;15.93;3.20;;;3.90;99.90;;;;;;5074614;28;20063;-70
2022/02/25 03:28:04;;;;;;;15.70;3.92;;;3.90;99.90;;;;;;5074453;28;20119;-70
2022/02/25 03:30:30;;;;;;;10.65;2.47;;;3.90;99.90;;;;;;5074669;28;20111;-70
2022/02/25 03:32:56;;;;;;;16.60;3.83;;;3.90;99.90;;;;;;5105213;22;20036;-72
2022/02/25 03:35:22;;;;;;;14.15;2.45;;;3.90;99.90;;;;;;5076830;28;20051;-72
2022/02/25 03:37:48;;;;;;;12.48;3.20;;;3.80;99.90;;;;;;5060271;28;20501;-72
2022/02/25 03:40:14;;;;;;;18.90;5.20;;;3.90;99.90;;;;;;5075306;28;20085;-72
2022/02/25 03:42:40;;;;;;;15.25;3.08;;;3.80;99.90;;;;;;5076329;28;20043;-72
2022/02/25 03:45:07;;;;;;;21.67;3.45;;;3.80;99.90;;;;;;5059967;28;20547;-73
2022/02/25 03:47:34;;;;;;;8.93;2.40;;;3.80;99.90;;;;;;5076693;28;20040;-72
2022/02/25 03:50:00;;;;;;;17.77;3.88;;;3.80;99.90;;;;;;5060030;28;20048;-72
2022/02/25 03:52:25;;;;;;;9.48;2.10;;;3.90;99.90;;;;;;5075758;28;20036;-72
2022/02/25 03:54:51;;;;;;;14.30;3.55;;;3.90;99.90;;;;;;5076228;28;20067;-72
2022/02/25 03:57:16;;;;;;;15.70;3.08;;;3.90;99.90;;;;;;5076247;28;20126;-72
2022/02/25 03:59:42;;;;;;;16.90;3.88;;;3.90;99.90;;;;;;5076147;28;20122;-72
2022/02/25 04:02:07;;;;;;;18.58;3.13;;;3.80;99.90;;;;;;5093717;28;20036;-72
2022/02/25 04:04:33;;;;;;;15.27;3.45;;;3.80;99.90;;;;;;5076078;28;20028;-72
2022/02/25 04:06:58;;;;;;;13.43;4.15;;;3.80;99.90;;;;;;5076382;28;20054;-72
2022/02/25 04:09:24;;;;;;;11.27;2.83;;;3.80;99.90;;;;;;5075991;28;20493;-72
2022/02/25 04:11:52;;;;;;;12.05;2.63;;;3.80;99.90;;;;;;5075706;28;20039;-72
2022/02/25 04:14:19;;;;;;;10.95;2.70;;;3.80;99.90;;;;;;5075286;28;20047;-72
2022/02/25 04:16:45;;;;;;;13.52;3.58;;;3.70;99.90;;;;;;5075906;28;20036;-72
2022/02/25 04:19:11;;;;;;;21.00;3.45;;;3.70;99.90;;;;;;5076143;28;20396;-72
2022/02/25 04:21:36;;;;;;;10.48;2.75;;;3.80;99.90;;;;;;5075639;28;20119;-73
2022/02/25 04:24:02;;;;;;;19.02;4.35;;;3.80;99.90;;;;;;5075672;28;20047;-72
2022/02/25 04:26:28;;;;;;;15.35;2.33;;;3.80;99.90;;;;;;5075771;28;20613;-73
2022/02/25 04:28:53;;;;;;;19.13;3.33;;;3.80;99.90;;;;;;5075574;28;20093;-72
2022/02/25 04:31:19;;;;;;;17.48;3.95;;;3.80;99.90;;;;;;5075410;28;20424;-72
2022/02/25 04:33:44;;;;;;;14.10;3.78;;;3.80;99.90;;;;;;5075425;28;20036;-72
2022/02/25 04:36:10;;;;;;;17.88;3.03;;;3.80;99.90;;;;;;5058926;28;20123;-72
2022/02/25 04:38:37;;;;;;;20.05;3.40;;;3.80;99.90;;;;;;5075498;28;20036;-73
2022/02/25 04:41:03;;;;;;;18.52;2.97;;;3.80;99.90;;;;;;5075430;28;20115;-72
2022/02/25 04:43:29;;;;;;;15.80;3.90;;;3.70;99.90;;;;;;5075595;28;20536;-73
2022/02/25 04:45:56;;;;;;;20.27;4.13;;;3.80;99.90;;;;;;5075473;28;20055;-72
2022/02/25 04:48:22;;;;;;;17.90;3.00;;;3.80;99.90;;;;;;5075512;28;20044;-72
2022/02/25 04:50:48;;;;;;;18.73;2.95;;;3.80;99.90;;;;;;5075335;28;20426;-72
2022/02/25 04:53:13;;;;;;;11.10;2.78;;;3.80;99.90;;;;;;5074721;28;20040;-72
2022/02/25 04:55:39;;;;;;;19.23;2.90;;;3.90;99.90;;;;;;5075484;28;20044;-72
2022/02/25 04:58:05;;;;;;;12.02;3.30;;;4.00;99.90;;;;;;5075349;28;20044;-72
2022/02/25 05:00:30;;;;;;;15.32;2.95;;;4.00;99.90;;;;;;5074938;28;20040;-73
2022/02/25 05:02:56;;;;;;;10.45;2.50;;;4.10;99.90;;;;;;5074619;28;20078;-72
2022/02/25 05:05:22;;;;;;;18.42;3.33;;;4.10;99.90;;;;;;5075032;28;20058;-73
2022/02/25 05:07:47;;;;;;;11.27;2.55;;;4.10;99.90;;;;;;5092907;28;20055;-72
2022/02/25 05:10:13;;;;;;;14.10;3.45;;;4.10;99.90;;;;;;5074819;28;20044;-73
2022/02/25 05:12:39;;;;;;;11.80;2.83;;;4.20;99.90;;;;;;5074342;28;20040;-72
2022/02/25 05:20:34;;;;;;;16.65;4.10;;;4.30;99.90;;;;;;5074655;28;20040;-73
2022/02/25 05:23:02;;;;;;;10.18;2.83;;;4.30;99.90;;;;;;5074399;28;20044;-72
2022/02/25 05:25:29;;;;;;;18.55;3.55;;;4.30;99.90;;;;;;5074697;28;20374;-73
2022/02/25 05:27:56;;;;;;;14.20;3.03;;;4.30;99.90;;;;;;5073862;28;20032;-73
2022/02/25 05:30:23;;;;;;;16.88;3.20;;;4.30;99.90;;;;;;5074470;28;20047;-72
2022/02/25 05:32:49;;;;;;;20.10;3.28;;;4.30;99.90;;;;;;5092068;28;20032;-73
2022/02/25 05:35:15;;;;;;;17.23;3.28;;;4.30;99.90;;;;;;5074406;28;20063;-73
2022/02/25 05:37:43;;;;;;;16.95;3.50;;;4.30;99.90;;;;;;5074338;28;20032;-72
2022/02/25 05:40:11;;;;;;;11.50;2.60;;;4.30;99.90;;;;;;5074518;28;20436;-72
2022/02/25 05:42:38;;;;;;;16.42;2.97;;;4.30;99.90;;;;;;5073908;28;20076;-73
2022/02/25 05:45:05;;;;;;;10.05;2.42;;;4.20;99.90;;;;;;5057847;28;20040;-73
2022/02/25 05:47:31;;;;;;;15.93;3.40;;;4.20;99.90;;;;;;5074157;28;20067;-73
2022/02/25 05:49:56;;;;;;;16.45;3.55;;;4.20;99.90;;;;;;5074364;28;20040;-72
2022/02/25 05:52:22;;;;;;;19.75;4.60;;;4.20;99.90;;;;;;5074007;28;20077;-72
2022/02/25 05:54:48;;;;;;;18.02;3.70;;;4.30;99.90;;;;;;5074084;28;20066;-73
2022/02/25 05:57:14;;;;;;;20.25;3.30;;;4.30;99.90;;;;;;5074325;28;20037;-72
2022/02/25 05:59:41;;;;;;;15.30;3.47;;;4.30;99.90;;;;;;5074156;28;20050;-72
2022/02/25 06:02:07;;;;;;;14.00;2.50;;;4.30;99.90;;;;;;5073701;28;20043;-72
2022/02/25 06:04:33;;;;;;;22.33;3.72;;;4.30;99.90;;;;;;5074085;28;20040;-72
2022/02/25 06:06:58;;;;;;;12.32;3.85;;;4.40;99.90;;;;;;5057486;28;20050;-73
2022/02/25 06:09:24;;;;;;;20.55;5.50;;;4.40;99.90;;;;;;5073953;28;20055;-72
2022/02/25 06:11:49;;;;;;;18.02;3.15;;;4.40;99.90;;;;;;5073982;28;20082;-72
2022/02/25 06:14:15;;;;;;;17.92;4.78;;;4.40;99.90;;;;;;5073768;28;20061;-73
2022/02/25 06:16:41;;;;;;;22.77;3.97;;;4.40;99.90;;;;;;5073786;28;20067;-72
2022/02/25 06:19:07;;;;;;;20.80;4.80;;;4.40;99.90;;;;;;5057281;28;20459;-72
2022/02/25 06:21:32;;;;;;;13.95;3.17;;;4.40;99.90;;;;;;5073678;28;20497;-73
2022/02/25 06:23:58;;;;;;;16.13;3.58;;;4.40;99.90;;;;;;5073907;28;20076;-72
2022/02/25 06:26:26;;;;;;;14.05;3.63;;;4.40;99.90;;;;;;5073783;28;20416;-73
2022/02/25 06:28:53;;;;;;;20.83;3.55;;;4.40;99.90;;;;;;5073739;28;20123;-73
2022/02/25 06:31:18;;;;;;;18.75;3.08;;;4.40;99.90;;;;;;5073526;28;20070;-73
2022/02/25 06:33:44;;;;;;;17.05;4.15;;;4.50;99.90;;;;;;5073432;28;20503;-73
2022/02/25 06:36:10;;;;;;;8.60;2.53;;;4.40;99.90;;;;;;5073814;28;20047;-73
2022/02/25 06:38:36;;;;;;;18.17;3.50;;;4.30;99.90;;;;;;5071839;28;20032;-72
2022/02/25 06:41:02;;;;;;;12.35;2.25;;;4.20;99.90;;;;;;5077902;28;20485;-73
2022/02/25 06:43:28;;;;;;;8.00;2.88;;;4.10;99.90;;;;;;5053841;28;20044;-72
2022/02/25 06:45:53;;;;;;;11.02;2.30;;;4.10;99.90;;;;;;5077596;28;20445;-72
2022/02/25 06:48:19;;;;;;;9.23;2.20;;;4.00;99.90;;;;;;5074092;28;20427;-72
2022/02/25 06:50:44;;;;;;;12.95;4.10;;;4.00;99.90;;;;;;5066093;28;20391;-73
2022/02/25 06:53:10;;;;;;;13.93;3.50;;;4.00;99.90;;;;;;5076955;28;20513;-72
2022/02/25 06:55:35;;;;;;;17.25;4.40;;;4.00;99.90;;;;;;5077344;28;20555;-73
2022/02/25 06:58:03;;;;;;;21.42;5.25;;;4.00;99.90;;;;;;5077103;28;20040;-73
2022/02/25 07:00:29;;;;;;;13.00;3.30;;;4.00;99.90;;;;;;5076965;28;20036;-72
2022/02/25 07:02:56;;;;;;;11.63;3.75;;;4.00;99.90;;;;;;5076771;28;20463;-73
2022/02/25 07:05:22;;;;;;;16.95;4.35;;;4.00;99.90;;;;;;5077044;28;20084;-73
2022/02/25 07:07:48;;;;;;;13.90;3.78;;;4.00;99.90;;;;;;5060445;28;20130;-75
2022/02/25 07:10:14;;;;;;;25.15;3.75;;;4.00;99.90;;;;;;5077429;28;20048;-75
2022/02/25 07:12:39;;;;;;;11.98;4.15;;;4.00;99.90;;;;;;5095231;28;20039;-74
2022/02/25 07:15:06;;;;;;;15.77;3.55;;;4.10;99.90;;;;;;5080766;28;20045;-74
2022/02/25 07:17:32;;;;;;;17.65;4.00;;;4.10;99.90;;;;;;5056888;28;20047;-73
2022/02/25 07:19:58;;;;;;;18.25;3.58;;;4.10;99.90;;;;;;5059105;28;20040;-73
2022/02/25 07:22:23;;;;;;;16.42;4.82;;;4.20;99.90;;;;;;5065236;28;20043;-73
2022/02/25 07:24:49;;;;;;;15.90;3.75;;;4.20;99.90;;;;;;5086240;28;20048;-73
2022/02/25 07:27:15;;;;;;;17.10;4.13;;;4.20;99.90;;;;;;5073662;28;20067;-73
2022/02/25 07:29:40;;;;;;;14.95;2.83;;;4.20;99.90;;;;;;5076541;28;20405;-73
2022/02/25 07:32:06;;;;;;;20.77;3.60;;;4.30;99.90;;;;;;5076065;28;20028;-73
2022/02/25 07:34:32;;;;;;;15.23;4.25;;;4.20;99.90;;;;;;5094755;28;20032;-73
2022/02/25 07:36:57;;;;;;;14.68;3.80;;;4.30;99.90;;;;;;5076702;28;20610;-74
2022/02/25 07:39:23;;;;;;;24.50;4.53;;;4.30;99.90;;;;;;5076664;28;20040;-74
2022/02/25 07:41:48;;;;;;;18.95;4.10;;;4.30;99.90;;;;;;5094113;28;20078;-74
2022/02/25 07:44:14;;;;;;;19.58;4.10;;;4.40;99.90;;;;;;5076249;28;20043;-73
2022/02/25 07:46:40;;;;;;;22.35;4.15;;;4.40;99.90;;;;;;5070161;28;20039;-73
2022/02/25 07:49:05;;;;;;;15.55;4.43;;;4.40;99.90;;;;;;5064092;28;20551;-74
2022/02/25 07:51:31;;;;;;;18.60;4.28;;;4.30;99.90;;;;;;5066518;28;20039;-73
2022/02/25 07:53:56;;;;;;;14.55;4.70;;;4.30;99.90;;;;;;5065316;28;20029;-73
2022/02/25 07:56:23;;;;;;;17.38;3.72;;;4.30;99.90;;;;;;5070320;28;20043;-75
2022/02/25 07:58:49;;;;;;;20.50;4.18;;;4.30;99.90;;;;;;5076028;28;20044;-75
2022/02/25 08:01:15;;;;;;;17.55;3.80;;;4.50;99.90;;;;;;5075808;28;20097;-75
2022/02/25 08:03:41;;;;;;;14.10;4.22;;;4.70;99.90;;;;;;5075908;28;20036;-75
2022/02/25 08:06:07;;;;;;;23.52;4.97;;;4.90;99.90;;;;;;5092197;28;20032;-74
2022/02/25 08:08:33;;;;;;;15.75;4.07;;;5.10;99.90;;;;;;5075599;28;20044;-74
2022/02/25 08:10:58;;;;;;;18.52;4.75;;;5.30;99.90;;;;;;5075651;28;20048;-74
2022/02/25 08:13:24;;;;;;;24.33;6.63;;;5.40;99.90;;;;;;5075318;28;20513;-75
2022/02/25 08:15:49;;;;;;;20.42;5.68;;;5.60;99.90;;;;;;5075486;28;20048;-78
2022/02/25 08:18:15;;;;;;;22.08;4.85;;;5.60;99.90;;;;;;5058581;28;20036;-75
2022/02/25 08:20:41;;;;;;;14.90;3.92;;;5.70;99.90;;;;;;5075359;28;20054;-76
2022/02/25 08:23:07;;;;;;;18.85;3.92;;;5.90;99.90;;;;;;5093477;28;20042;-75
2022/02/25 08:25:34;;;;;;;22.02;4.90;;;6.00;99.90;;;;;;5075483;28;20479;-75
2022/02/25 08:28:00;;;;;;;12.68;4.00;;;6.20;99.90;;;;;;5075623;28;20075;-75
2022/02/25 08:30:26;;;;;;;17.50;4.55;;;6.30;99.90;;;;;;5075331;28;20047;-76
2022/02/25 08:32:53;;;;;;;16.13;3.75;;;6.50;99.90;;;;;;5093271;28;20044;-75
2022/02/25 08:35:19;;;;;;;20.63;4.65;;;6.60;99.90;;;;;;5075337;28;20126;-75
2022/02/25 08:37:46;;;;;;;17.35;3.35;;;6.70;99.90;;;;;;5075618;28;20043;-76
2022/02/25 08:40:14;;;;;;;15.85;3.10;;;6.70;99.90;;;;;;5074793;28;20115;-75
2022/02/25 08:42:40;;;;;;;15.18;4.50;;;6.60;99.90;;;;;;5074987;28;20127;-75
2022/02/25 08:45:07;;;;;;;17.05;3.78;;;6.40;99.90;;;;;;5075360;28;20538;-75
2022/02/25 08:47:33;;;;;;;17.13;3.25;;;6.30;99.90;;;;;;5075214;28;20036;-75
2022/02/25 08:49:59;;;;;;;17.80;4.07;;;6.10;99.90;;;;;;5075107;28;20040;-75
2022/02/25 08:52:24;;;;;;;14.95;4.00;;;6.00;99.90;;;;;;5074586;28;20047;-75
2022/02/25 08:54:50;;;;;;;18.27;4.25;;;5.80;99.90;;;;;;5074881;28;20440;-76
2022/02/25 08:57:16;;;;;;;20.50;4.43;;;5.70;99.90;;;;;;5075225;28;20055;-76
2022/02/25 08:59:45;;;;;;;20.45;5.57;;;5.70;99.90;;;;;;5093071;28;20036;-75
2022/02/25 09:02:11;;;;;;;20.90;3.47;;;5.70;99.90;;;;;;5074517;28;20454;-75
2022/02/25 09:04:37;;;;;;;19.58;4.05;;;5.70;99.90;;;;;;5075013;28;20047;-76
2022/02/25 09:07:03;;;;;;;9.05;3.33;;;5.70;99.90;;;;;;5074780;28;20497;-75
2022/02/25 09:09:29;;;;;;;14.43;3.30;;;5.70;99.90;;;;;;5074839;28;20468;-75
2022/02/25 09:11:55;;;;;;;21.60;4.38;;;5.70;99.90;;;;;;5092774;28;20075;-75
2022/02/25 09:14:20;;;;;;;13.05;3.03;;;5.70;99.90;;;;;;5057863;28;20040;-76
2022/02/25 09:16:46;;;;;;;19.50;3.55;;;5.70;99.90;;;;;;5074444;28;20040;-75
2022/02/25 09:19:13;;;;;;;13.65;2.75;;;5.80;99.90;;;;;;5074537;28;20060;-75
2022/02/25 09:21:38;;;;;;;17.05;3.50;;;5.80;99.90;;;;;;5074356;28;20537;-75
2022/02/25 09:24:05;;;;;;;14.80;3.53;;;5.90;99.90;;;;;;5074182;28;20118;-75
2022/02/25 09:26:31;;;;;;;13.77;2.83;;;5.90;99.90;;;;;;5074316;28;20036;-75
2022/02/25 09:28:58;;;;;;;15.98;3.42;;;6.00;99.90;;;;;;5093016;28;20040;-75
2022/02/25 09:31:24;;;;;;;12.38;2.95;;;6.00;99.90;;;;;;5074185;28;20040;-76
2022/02/25 09:33:49;;;;;;;16.27;3.42;;;6.10;99.90;;;;;;5083220;22;20142;-70
2022/02/25 09:36:15;;;;;;;17.65;2.90;;;6.30;99.90;;;;;;5071860;28;20040;-70
2022/02/25 09:38:41;;;;;;;19.65;3.08;;;6.40;99.90;;;;;;5070809;28;20043;-70
2022/02/25 09:41:07;;;;;;;20.27;4.05;;;6.50;99.90;;;;;;5071214;28;20040;-70
2022/02/25 09:43:33;;;;;;;14.85;2.70;;;6.70;99.90;;;;;;5072027;28;20071;-70
2022/02/25 09:46:05;;;;;;;13.10;4.07;;;6.80;99.90;;;;;;5071935;28;20089;-70
2022/02/25 09:48:32;;;;;;;24.40;3.65;;;6.80;99.90;;;;;;5072027;28;20044;-70
2022/02/25 09:50:58;;;;;;;20.63;3.63;;;7.00;99.90;;;;;;5071554;28;20578;-70
2022/02/25 09:53:24;;;;;;;27.27;4.88;;;7.10;99.90;;;;;;5071840;28;20032;-70
2022/02/25 09:55:51;;;;;;;19.02;3.88;;;7.20;99.90;;;;;;5072024;28;20036;-71
2022/02/25 09:58:17;;;;;;;15.90;3.45;;;7.30;99.90;;;;;;5070427;28;20464;-70
2022/02/25 10:00:43;;;;;;;19.45;3.35;;;7.40;99.90;;;;;;5071757;28;20067;-70
2022/02/25 10:03:17;;;;;;;21.40;4.10;;;7.50;99.90;;;;;;5071429;28;20098;-70
2022/02/25 10:05:44;;;;;;;13.43;2.83;;;7.40;99.90;;;;;;5071827;28;20040;-70
2022/02/25 10:08:23;;;;;;;19.38;4.28;;;7.30;99.90;;;;;;5071627;28;20452;-70
2022/02/25 10:10:50;;;;;;;11.68;2.13;;;7.20;99.90;;;;;;5071738;28;20040;-70
2022/02/25 10:13:27;;;;;;;11.48;2.40;;;6.60;99.90;;;;;;5070989;28;20490;-70
2022/02/25 10:15:56;;;;;;;7.60;1.98;;;6.10;99.90;;;;;;5071702;28;20098;-70
2022/02/25 10:18:30;;;;;;;14.30;2.13;;;5.40;99.90;;;;;;5071808;28;20082;-70
2022/02/25 10:21:07;;;;;;;9.50;2.58;;;5.00;99.90;;;;;;5071622;28;20033;-70
2022/02/25 10:23:43;;;;;;;13.27;1.83;;;4.60;99.90;;;;;;5071633;28;20052;-70
2022/02/25 10:26:15;;;;;;;11.43;2.88;;;4.30;99.90;;;;;;5053679;28;20045;-70
2022/02/25 10:28:49;;;;;;;15.77;3.25;;;4.10;99.90;;;;;;5071531;28;20053;-70
2022/02/25 10:31:29;;;;;;;17.45;3.95;;;4.00;99.90;;;;;;5071525;28;20490;-70
2022/02/25 10:34:14;;;;;;;15.70;3.78;;;4.00;99.90;;;;;;5084480;28;20071;-70
2022/02/25 10:36:49;;;;;;;19.30;4.47;;;4.30;99.90;;;;;;5091542;28;20047;-70
2022/02/25 10:39:26;;;;;;;23.27;4.28;;;4.30;99.90;;;;;;5091562;28;20040;-71
2022/02/25 10:42:03;;;;;;;20.52;3.20;;;4.40;99.90;;;;;;5091460;28;20055;-70
2022/02/25 10:44:41;;;;;;;24.10;4.10;;;4.40;99.90;;;;;;5091448;28;20075;-70
2022/02/25 10:47:11;;;;;;;15.52;3.47;;;4.50;99.90;;;;;;5091797;28;20378;-70
2022/02/25 10:49:37;;;;;;;26.08;4.18;;;4.60;99.90;;;;;;5091509;28;20512;-70
2022/02/25 10:52:29;;;;;;;14.07;3.08;;;4.90;99.90;;;;;;5073035;28;20036;-70
2022/02/25 10:54:56;;;;;;;23.15;5.97;;;5.00;99.90;;;;;;5091314;28;20046;-70
2022/02/25 10:57:22;;;;;;;22.42;3.83;;;4.90;99.90;;;;;;5091676;28;20040;-70
2022/02/25 10:59:48;;;;;;;16.90;2.90;;;5.00;99.90;;;;;;5089644;28;20466;-70
2022/02/25 11:02:45;;;;;;;15.93;3.13;;;5.00;99.90;;;;;;5082737;28;20067;-70
2022/02/25 11:05:19;;;;;;;11.82;2.45;;;4.80;99.90;;;;;;5066645;28;20125;-70
2022/02/25 11:07:49;;;;;;;11.38;1.65;;;4.80;99.90;;;;;;5089611;28;20097;-69
2022/02/25 11:10:18;;;;;;;9.63;2.40;;;4.70;99.90;;;;;;5091133;28;20055;-70
2022/02/25 11:12:45;;;;;;;20.23;4.57;;;4.60;99.90;;;;;;5089914;28;20090;-70
2022/02/25 11:15:18;;;;;;;14.48;2.80;;;4.70;99.90;;;;;;5090885;28;20039;-70
2022/02/25 11:17:45;;;;;;;10.85;2.28;;;4.70;99.90;;;;;;5091015;28;20036;-69
2022/02/25 11:20:12;;;;;;;14.85;2.60;;;4.80;99.90;;;;;;5090987;28;20040;-69
2022/02/25 11:22:41;;;;;;;21.20;3.10;;;4.90;99.90;;;;;;5090370;28;20040;-69
2022/02/25 11:25:11;;;;;;;19.77;3.50;;;5.00;99.90;;;;;;5091295;28;20036;-69
2022/02/25 11:27:36;;;;;;;15.70;2.78;;;5.10;99.90;;;;;;5094428;28;20043;-69
2022/02/25 11:30:25;;;;;;;10.20;3.55;;;5.20;99.90;;;;;;5094026;28;20089;-69
2022/02/25 11:32:58;;;;;;;14.63;3.25;;;5.40;99.90;;;;;;5090054;28;20063;-69
2022/02/25 11:35:30;;;;;;;20.70;3.30;;;5.80;99.90;;;;;;5073610;28;20051;-70
2022/02/25 11:38:14;;;;;;;10.07;2.28;;;5.90;99.90;;;;;;5093210;28;20095;-69
2022/02/25 11:40:48;;;;;;;10.60;2.95;;;6.00;99.90;;;;;;5094259;28;20408;-69
2022/02/25 11:43:14;;;;;;;12.23;2.58;;;6.00;99.90;;;;;;5094132;28;20543;-69
2022/02/25 11:45:53;;;;;;;10.43;2.30;;;5.90;99.90;;;;;;5094339;28;20032;-69
2022/02/25 11:48:25;;;;;;;9.13;1.90;;;6.00;99.90;;;;;;5094173;28;20036;-70
2022/02/25 11:50:54;;;;;;;6.43;2.15;;;6.00;99.90;;;;;;5093915;28;20529;-70
2022/02/25 11:53:23;;;;;;;7.28;1.38;;;6.00;99.90;;;;;;5075567;28;20125;-69
2022/02/25 11:55:50;;;;;;;9.13;2.28;;;6.00;99.90;;;;;;5094289;28;20055;-69
2022/02/25 11:58:49;;;;;;;16.92;1.60;;;6.00;99.90;;;;;;5076075;28;20063;-70
2022/02/25 12:01:19;;;;;;;13.23;1.85;;;6.00;99.90;;;;;;5075780;28;20055;-70
2022/02/25 12:04:07;;;;;;;10.82;2.47;;;6.10;99.90;;;;;;5087795;28;20047;-70
2022/02/25 12:06:55;;;;;;;16.75;3.80;;;6.00;99.90;;;;;;5066268;28;20048;-69
2022/02/25 12:09:48;;;;;;;9.18;2.17;;;6.00;99.90;;;;;;5073193;28;20050;-69
2022/02/25 12:12:20;;;;;;;11.27;1.98;;;6.10;99.90;;;;;;5091866;28;20032;-69
2022/02/25 12:15:17;;;;;;;22.75;3.05;;;6.20;99.90;;;;;;5084552;28;20579;-70
2022/02/25 12:17:57;;;;;;;10.82;1.90;;;6.30;99.90;;;;;;5093216;28;20098;-71
2022/02/25 12:20:45;;;;;;;10.98;2.70;;;6.30;99.90;;;;;;5093741;28;20120;-70
2022/02/25 12:23:18;;;;;;;18.20;2.50;;;6.30;99.90;;;;;;5090320;28;20037;-69
2022/02/25 12:25:50;;;;;;;11.38;4.22;;;6.30;99.90;;;;;;5087629;28;20032;-70
2022/02/25 12:28:28;;;;;;;15.68;2.83;;;6.40;99.90;;;;;;5093800;28;20493;-71
2022/02/25 12:31:04;;;;;;;17.27;2.63;;;6.60;99.90;;;;;;5093408;28;20564;-70
2022/02/25 12:33:44;;;;;;;17.10;2.80;;;6.60;99.90;;;;;;5093511;28;20066;-70
2022/02/25 12:36:17;;;;;;;20.70;3.05;;;6.60;99.90;;;;;;5093333;28;20378;-70
2022/02/25 12:38:49;;;;;;;21.58;3.33;;;6.80;99.90;;;;;;5093536;28;20051;-70
2022/02/25 12:41:19;;;;;;;16.30;3.80;;;6.90;99.90;;;;;;5093081;28;20059;-71
2022/02/25 12:44:12;;;;;;;12.52;2.50;;;7.10;99.90;;;;;;5093427;28;20040;-72
2022/02/25 12:46:48;;;;;;;21.20;2.75;;;7.20;99.90;;;;;;5092431;28;20425;-71
2022/02/25 12:49:15;;;;;;;13.57;2.03;;;7.30;99.90;;;;;;5093301;28;20044;-72
2022/02/25 12:51:43;;;;;;;13.68;2.25;;;7.10;99.90;;;;;;5092894;28;20075;-71
2022/02/25 12:54:14;;;;;;;11.10;2.70;;;7.30;99.90;;;;;;5074811;28;20043;-71
2022/02/25 12:56:45;;;;;;;14.48;2.30;;;7.30;99.90;;;;;;5093244;28;20052;-71